sensor_id;sensor_type;location;lat;lon;timestamp;pressure;altitude;pressure_sealevel;temperature;humidity
65754;BME280;69207;47.502;18.940;2023-04-25T00:00:30;97057.25;;;10.46;86.91
65754;BME280;69207;47.502;18.940;2023-04-25T00:01:34;97054.81;;;10.52;86.59
65754;BME280;69207;47.502;18.940;2023-04-25T00:02:38;97054.19;;;10.54;87.14
65754;BME280;69207;47.502;18.940;2023-04-25T00:03:42;97054.59;;;10.48;87.13
65754;BME280;69207;47.502;18.940;2023-04-25T00:04:45;97050.94;;;10.44;87.56
65754;BME280;69207;47.502;18.940;2023-04-25T00:05:49;97049.81;;;10.49;86.96
65754;BME280;69207;47.502;18.940;2023-04-25T00:06:55;97053.88;;;10.48;87.44
65754;BME280;69207;47.502;18.940;2023-04-25T00:07:58;97047.41;;;10.55;87.21
65754;BME280;69207;47.502;18.940;2023-04-25T00:09:02;97046.78;;;10.56;86.71
65754;BME280;69207;47.502;18.940;2023-04-25T00:10:06;97050.16;;;10.55;86.86
65754;BME280;69207;47.502;18.940;2023-04-25T00:11:10;97054.41;;;10.44;87.22
65754;BME280;69207;47.502;18.940;2023-04-25T00:12:13;97055.31;;;10.49;86.93
65754;BME280;69207;47.502;18.940;2023-04-25T00:13:16;97046.47;;;10.50;86.71
65754;BME280;69207;47.502;18.940;2023-04-25T00:14:20;97052.37;;;10.45;87.00
65754;BME280;69207;47.502;18.940;2023-04-25T00:15:23;97042.09;;;10.45;87.30
65754;BME280;69207;47.502;18.940;2023-04-25T00:16:27;97041.88;;;10.41;87.88
65754;BME280;69207;47.502;18.940;2023-04-25T00:17:32;97043.03;;;10.50;87.15
65754;BME280;69207;47.502;18.940;2023-04-25T00:18:35;97049.63;;;10.45;86.84
65754;BME280;69207;47.502;18.940;2023-04-25T00:19:39;97038.13;;;10.48;87.13
65754;BME280;69207;47.502;18.940;2023-04-25T00:20:43;97037.22;;;10.44;87.17
65754;BME280;69207;47.502;18.940;2023-04-25T00:21:49;97031.28;;;10.36;87.64
65754;BME280;69207;47.502;18.940;2023-04-25T00:22:52;97040.94;;;10.37;87.70
65754;BME280;69207;47.502;18.940;2023-04-25T00:23:56;97036.47;;;10.43;87.16
65754;BME280;69207;47.502;18.940;2023-04-25T00:24:59;97035.78;;;10.43;87.50
65754;BME280;69207;47.502;18.940;2023-04-25T00:26:02;97032.75;;;10.50;87.19
65754;BME280;69207;47.502;18.940;2023-04-25T00:27:05;97035.09;;;10.56;86.67
65754;BME280;69207;47.502;18.940;2023-04-25T00:28:08;97031.53;;;10.53;86.70
65754;BME280;69207;47.502;18.940;2023-04-25T00:29:11;97035.50;;;10.50;86.84
65754;BME280;69207;47.502;18.940;2023-04-25T00:30:15;97038.25;;;10.50;86.93
65754;BME280;69207;47.502;18.940;2023-04-25T00:31:18;97040.28;;;10.50;86.98
65754;BME280;69207;47.502;18.940;2023-04-25T00:32:21;97024.38;;;10.48;87.05
65754;BME280;69207;47.502;18.940;2023-04-25T00:33:24;97032.03;;;10.50;87.03
65754;BME280;69207;47.502;18.940;2023-04-25T00:34:27;97028.69;;;10.51;86.56
65754;BME280;69207;47.502;18.940;2023-04-25T00:35:30;97026.25;;;10.44;87.13
65754;BME280;69207;47.502;18.940;2023-04-25T00:36:34;97018.31;;;10.50;87.38
65754;BME280;69207;47.502;18.940;2023-04-25T00:37:38;97019.59;;;10.49;87.47
65754;BME280;69207;47.502;18.940;2023-04-25T00:38:41;97023.09;;;10.49;87.29
65754;BME280;69207;47.502;18.940;2023-04-25T00:39:44;97033.16;;;10.45;87.42
65754;BME280;69207;47.502;18.940;2023-04-25T00:40:47;97017.25;;;10.43;88.01
65754;BME280;69207;47.502;18.940;2023-04-25T00:41:50;97024.38;;;10.48;88.04
65754;BME280;69207;47.502;18.940;2023-04-25T00:42:56;97022.16;;;10.45;88.12
65754;BME280;69207;47.502;18.940;2023-04-25T00:43:59;97016.78;;;10.47;88.08
65754;BME280;69207;47.502;18.940;2023-04-25T00:45:05;97023.38;;;10.42;88.22
65754;BME280;69207;47.502;18.940;2023-04-25T00:46:09;97027.44;;;10.41;88.30
65754;BME280;69207;47.502;18.940;2023-04-25T00:47:13;97024.69;;;10.41;88.35
65754;BME280;69207;47.502;18.940;2023-04-25T00:48:17;97017.88;;;10.42;88.66
65754;BME280;69207;47.502;18.940;2023-04-25T00:49:20;97017.38;;;10.45;87.96
65754;BME280;69207;47.502;18.940;2023-04-25T00:50:23;97017.47;;;10.47;88.21
65754;BME280;69207;47.502;18.940;2023-04-25T00:51:27;97005.37;;;10.39;88.57
65754;BME280;69207;47.502;18.940;2023-04-25T00:52:30;97011.19;;;10.45;88.34
65754;BME280;69207;47.502;18.940;2023-04-25T00:53:33;97008.44;;;10.45;88.40
65754;BME280;69207;47.502;18.940;2023-04-25T00:54:36;97005.16;;;10.48;88.22
65754;BME280;69207;47.502;18.940;2023-04-25T00:55:39;97000.38;;;10.49;88.23
65754;BME280;69207;47.502;18.940;2023-04-25T00:56:42;97004.78;;;10.54;87.53
65754;BME280;69207;47.502;18.940;2023-04-25T00:57:50;97002.44;;;10.48;87.46
65754;BME280;69207;47.502;18.940;2023-04-25T00:58:53;97001.41;;;10.42;88.03
65754;BME280;69207;47.502;18.940;2023-04-25T01:00:00;96998.78;;;10.44;88.17
65754;BME280;69207;47.502;18.940;2023-04-25T01:01:04;96999.38;;;10.42;88.33
65754;BME280;69207;47.502;18.940;2023-04-25T01:02:07;97006.19;;;10.41;88.27
65754;BME280;69207;47.502;18.940;2023-04-25T01:03:16;96998.78;;;10.44;88.08
65754;BME280;69207;47.502;18.940;2023-04-25T01:04:20;96991.97;;;10.45;87.67
65754;BME280;69207;47.502;18.940;2023-04-25T01:05:24;96998.66;;;10.42;87.55
65754;BME280;69207;47.502;18.940;2023-04-25T01:06:27;96999.06;;;10.36;88.04
65754;BME280;69207;47.502;18.940;2023-04-25T01:07:30;96995.91;;;10.42;87.95
65754;BME280;69207;47.502;18.940;2023-04-25T01:08:34;96991.44;;;10.35;88.01
65754;BME280;69207;47.502;18.940;2023-04-25T01:09:37;96991.22;;;10.30;88.55
65754;BME280;69207;47.502;18.940;2023-04-25T01:10:41;97004.13;;;10.28;89.02
65754;BME280;69207;47.502;18.940;2023-04-25T01:11:44;96995.28;;;10.29;89.28
65754;BME280;69207;47.502;18.940;2023-04-25T01:12:47;96983.09;;;10.32;88.95
65754;BME280;69207;47.502;18.940;2023-04-25T01:13:50;96994.06;;;10.32;88.57
65754;BME280;69207;47.502;18.940;2023-04-25T01:14:54;96990.59;;;10.32;88.57
65754;BME280;69207;47.502;18.940;2023-04-25T01:15:58;96985.03;;;10.30;88.79
65754;BME280;69207;47.502;18.940;2023-04-25T01:17:01;96994.91;;;10.35;88.30
65754;BME280;69207;47.502;18.940;2023-04-25T01:18:05;96997.44;;;10.31;88.39
65754;BME280;69207;47.502;18.940;2023-04-25T01:19:09;96996.81;;;10.32;87.70
65754;BME280;69207;47.502;18.940;2023-04-25T01:20:16;96995.06;;;10.25;88.14
65754;BME280;69207;47.502;18.940;2023-04-25T01:21:19;96998.13;;;10.31;88.01
65754;BME280;69207;47.502;18.940;2023-04-25T01:22:22;96993.16;;;10.28;87.52
65754;BME280;69207;47.502;18.940;2023-04-25T01:23:25;96996.50;;;10.26;87.69
65754;BME280;69207;47.502;18.940;2023-04-25T01:24:28;96998.84;;;10.32;87.41
65754;BME280;69207;47.502;18.940;2023-04-25T01:25:31;96994.06;;;10.32;86.90
65754;BME280;69207;47.502;18.940;2023-04-25T01:26:35;96993.34;;;10.32;86.45
65754;BME280;69207;47.502;18.940;2023-04-25T01:27:39;96991.00;;;10.26;86.25
65754;BME280;69207;47.502;18.940;2023-04-25T01:28:44;96991.00;;;10.26;86.09
65754;BME280;69207;47.502;18.940;2023-04-25T01:29:48;96997.44;;;10.31;85.84
65754;BME280;69207;47.502;18.940;2023-04-25T01:30:52;96995.50;;;10.34;85.51
65754;BME280;69207;47.502;18.940;2023-04-25T01:31:55;96988.56;;;10.32;85.47
65754;BME280;69207;47.502;18.940;2023-04-25T01:33:00;96993.66;;;10.24;86.28
65754;BME280;69207;47.502;18.940;2023-04-25T01:34:04;96989.81;;;10.29;86.63
65754;BME280;69207;47.502;18.940;2023-04-25T01:35:09;96991.00;;;10.26;86.79
65754;BME280;69207;47.502;18.940;2023-04-25T01:36:13;96983.19;;;10.35;85.38
65754;BME280;69207;47.502;18.940;2023-04-25T01:37:17;96982.37;;;10.32;85.13
65754;BME280;69207;47.502;18.940;2023-04-25T01:38:20;96982.56;;;10.22;85.75
65754;BME280;69207;47.502;18.940;2023-04-25T01:39:23;96983.47;;;10.27;85.23
65754;BME280;69207;47.502;18.940;2023-04-25T01:40:27;96988.16;;;10.24;85.12
65754;BME280;69207;47.502;18.940;2023-04-25T01:41:31;96990.66;;;10.20;85.52
65754;BME280;69207;47.502;18.940;2023-04-25T01:42:35;96986.75;;;10.23;85.09
65754;BME280;69207;47.502;18.940;2023-04-25T01:43:40;96988.75;;;10.23;84.85
65754;BME280;69207;47.502;18.940;2023-04-25T01:44:43;96980.63;;;10.25;84.56
65754;BME280;69207;47.502;18.940;2023-04-25T01:45:46;96980.41;;;10.21;84.65
65754;BME280;69207;47.502;18.940;2023-04-25T01:46:49;96981.63;;;10.18;84.89
65754;BME280;69207;47.502;18.940;2023-04-25T01:47:52;96981.97;;;10.24;85.00
65754;BME280;69207;47.502;18.940;2023-04-25T01:48:55;96982.94;;;10.17;85.07
65754;BME280;69207;47.502;18.940;2023-04-25T01:49:58;96976.63;;;10.14;85.45
65754;BME280;69207;47.502;18.940;2023-04-25T01:51:01;96982.94;;;10.17;85.14
65754;BME280;69207;47.502;18.940;2023-04-25T01:52:04;96982.13;;;10.14;85.28
65754;BME280;69207;47.502;18.940;2023-04-25T01:53:09;96987.00;;;10.16;85.11
65754;BME280;69207;47.502;18.940;2023-04-25T01:54:13;96982.34;;;10.18;85.11
65754;BME280;69207;47.502;18.940;2023-04-25T01:55:16;96990.91;;;10.24;84.48
65754;BME280;69207;47.502;18.940;2023-04-25T01:56:19;96978.97;;;10.20;84.31
65754;BME280;69207;47.502;18.940;2023-04-25T01:57:23;96987.72;;;10.16;84.54
65754;BME280;69207;47.502;18.940;2023-04-25T01:58:26;96985.78;;;10.19;84.40
65754;BME280;69207;47.502;18.940;2023-04-25T01:59:29;96990.34;;;10.14;84.14
65754;BME280;69207;47.502;18.940;2023-04-25T02:00:32;96982.81;;;10.15;84.32
65754;BME280;69207;47.502;18.940;2023-04-25T02:01:35;96980.78;;;10.15;84.68
65754;BME280;69207;47.502;18.940;2023-04-25T02:02:38;96994.62;;;10.17;84.57
65754;BME280;69207;47.502;18.940;2023-04-25T02:03:43;96987.12;;;10.18;84.17
65754;BME280;69207;47.502;18.940;2023-04-25T02:04:46;96989.34;;;10.21;84.26
65754;BME280;69207;47.502;18.940;2023-04-25T02:05:49;96987.81;;;10.18;83.92
65754;BME280;69207;47.502;18.940;2023-04-25T02:06:52;96989.16;;;10.17;83.51
65754;BME280;69207;47.502;18.940;2023-04-25T02:07:55;96989.84;;;10.18;83.58
65754;BME280;69207;47.502;18.940;2023-04-25T02:08:58;96990.56;;;10.18;83.45
65754;BME280;69207;47.502;18.940;2023-04-25T02:10:01;96990.56;;;10.18;83.77
65754;BME280;69207;47.502;18.940;2023-04-25T02:11:05;96984.00;;;10.23;83.12
65754;BME280;69207;47.502;18.940;2023-04-25T02:12:09;96989.84;;;10.18;83.09
65754;BME280;69207;47.502;18.940;2023-04-25T02:13:12;97005.28;;;10.11;83.45
65754;BME280;69207;47.502;18.940;2023-04-25T02:14:15;96996.94;;;10.09;83.40
65754;BME280;69207;47.502;18.940;2023-04-25T02:15:18;97003.47;;;10.16;82.66
65754;BME280;69207;47.502;18.940;2023-04-25T02:16:21;96990.06;;;10.22;81.93
65754;BME280;69207;47.502;18.940;2023-04-25T02:17:24;96993.81;;;10.15;82.41
65754;BME280;69207;47.502;18.940;2023-04-25T02:18:29;96988.53;;;10.19;82.75
65754;BME280;69207;47.502;18.940;2023-04-25T02:19:32;96998.44;;;10.24;82.07
65754;BME280;69207;47.502;18.940;2023-04-25T02:20:35;96998.19;;;10.20;82.14
65754;BME280;69207;47.502;18.940;2023-04-25T02:21:38;96990.56;;;10.18;82.06
65754;BME280;69207;47.502;18.940;2023-04-25T02:22:41;96993.72;;;10.13;82.33
65754;BME280;69207;47.502;18.940;2023-04-25T02:23:44;96994.50;;;10.15;81.99
65754;BME280;69207;47.502;18.940;2023-04-25T02:24:53;96995.03;;;10.12;82.28
65754;BME280;69207;47.502;18.940;2023-04-25T02:25:56;96994.41;;;10.13;82.35
65754;BME280;69207;47.502;18.940;2023-04-25T02:27:00;96986.28;;;10.15;81.53
65754;BME280;69207;47.502;18.940;2023-04-25T02:28:03;96998.72;;;10.16;81.56
65754;BME280;69207;47.502;18.940;2023-04-25T02:29:06;96995.12;;;10.14;81.50
65754;BME280;69207;47.502;18.940;2023-04-25T02:30:10;96997.25;;;10.15;81.59
65754;BME280;69207;47.502;18.940;2023-04-25T02:31:14;96997.87;;;10.14;80.93
65754;BME280;69207;47.502;18.940;2023-04-25T02:32:18;97005.19;;;10.09;81.13
65754;BME280;69207;47.502;18.940;2023-04-25T02:33:21;96992.78;;;10.08;81.56
65754;BME280;69207;47.502;18.940;2023-04-25T02:34:24;96989.81;;;10.04;81.31
65754;BME280;69207;47.502;18.940;2023-04-25T02:35:27;96980.69;;;10.13;80.86
65754;BME280;69207;47.502;18.940;2023-04-25T02:36:30;96996.06;;;10.18;80.37
65754;BME280;69207;47.502;18.940;2023-04-25T02:37:38;96995.03;;;10.12;80.71
65754;BME280;69207;47.502;18.940;2023-04-25T02:38:41;96986.28;;;10.15;80.75
65754;BME280;69207;47.502;18.940;2023-04-25T02:39:44;96995.84;;;10.14;80.71
65754;BME280;69207;47.502;18.940;2023-04-25T02:40:47;96993.00;;;10.12;80.88
65754;BME280;69207;47.502;18.940;2023-04-25T02:41:51;96988.72;;;10.09;81.21
65754;BME280;69207;47.502;18.940;2023-04-25T02:42:54;96987.06;;;10.04;81.58
65754;BME280;69207;47.502;18.940;2023-04-25T02:43:57;96988.72;;;10.09;81.14
65754;BME280;69207;47.502;18.940;2023-04-25T02:45:00;96992.38;;;10.14;81.02
65754;BME280;69207;47.502;18.940;2023-04-25T02:46:04;96997.87;;;10.14;81.01
65754;BME280;69207;47.502;18.940;2023-04-25T02:47:08;96993.72;;;10.13;81.10
65754;BME280;69207;47.502;18.940;2023-04-25T02:48:11;96997.78;;;10.12;80.85
65754;BME280;69207;47.502;18.940;2023-04-25T02:49:14;96989.72;;;10.16;81.00
65754;BME280;69207;47.502;18.940;2023-04-25T02:50:17;96992.00;;;10.19;80.71
65754;BME280;69207;47.502;18.940;2023-04-25T02:51:21;96984.66;;;10.10;81.16
65754;BME280;69207;47.502;18.940;2023-04-25T02:52:24;96988.28;;;10.01;81.85
65754;BME280;69207;47.502;18.940;2023-04-25T02:53:28;96996.41;;;9.99;82.06
65754;BME280;69207;47.502;18.940;2023-04-25T02:54:31;97001.84;;;10.11;81.42
65754;BME280;69207;47.502;18.940;2023-04-25T02:55:34;96998.87;;;10.07;81.46
65754;BME280;69207;47.502;18.940;2023-04-25T02:56:37;96991.34;;;10.07;81.50
65754;BME280;69207;47.502;18.940;2023-04-25T02:57:40;96994.81;;;10.08;81.58
65754;BME280;69207;47.502;18.940;2023-04-25T02:58:43;96991.03;;;10.01;81.81
65754;BME280;69207;47.502;18.940;2023-04-25T02:59:47;96997.63;;;9.96;82.27
65754;BME280;69207;47.502;18.940;2023-04-25T03:00:50;96993.25;;;9.91;83.07
65754;BME280;69207;47.502;18.940;2023-04-25T03:01:53;96992.03;;;9.94;82.46
65754;BME280;69207;47.502;18.940;2023-04-25T03:02:56;96999.16;;;9.99;82.17
65754;BME280;69207;47.502;18.940;2023-04-25T03:03:59;96997.72;;;9.98;81.90
65754;BME280;69207;47.502;18.940;2023-04-25T03:05:02;96999.53;;;9.93;82.46
65754;BME280;69207;47.502;18.940;2023-04-25T03:06:05;97000.47;;;9.98;82.15
65754;BME280;69207;47.502;18.940;2023-04-25T03:07:09;96992.13;;;9.96;82.09
65754;BME280;69207;47.502;18.940;2023-04-25T03:08:12;96986.75;;;9.98;81.67
65754;BME280;69207;47.502;18.940;2023-04-25T03:09:15;97001.78;;;9.97;81.87
65754;BME280;69207;47.502;18.940;2023-04-25T03:10:18;96987.84;;;9.93;81.96
65754;BME280;69207;47.502;18.940;2023-04-25T03:11:21;96979.31;;;9.87;82.35
65754;BME280;69207;47.502;18.940;2023-04-25T03:12:24;96995.16;;;9.88;82.33
65754;BME280;69207;47.502;18.940;2023-04-25T03:13:27;96998.28;;;9.83;82.46
65754;BME280;69207;47.502;18.940;2023-04-25T03:14:33;96982.44;;;9.81;82.91
65754;BME280;69207;47.502;18.940;2023-04-25T03:15:36;96997.09;;;9.86;82.41
65754;BME280;69207;47.502;18.940;2023-04-25T03:16:39;96991.81;;;9.90;82.20
65754;BME280;69207;47.502;18.940;2023-04-25T03:17:43;96996.28;;;9.83;82.27
65754;BME280;69207;47.502;18.940;2023-04-25T03:18:46;96985.56;;;9.75;82.91
65754;BME280;69207;47.502;18.940;2023-04-25T03:19:49;96992.38;;;9.74;83.43
65754;BME280;69207;47.502;18.940;2023-04-25T03:20:52;96987.81;;;9.79;83.19
65754;BME280;69207;47.502;18.940;2023-04-25T03:21:55;96988.53;;;9.79;83.32
65754;BME280;69207;47.502;18.940;2023-04-25T03:22:58;96985.69;;;9.77;83.34
65754;BME280;69207;47.502;18.940;2023-04-25T03:24:03;96992.22;;;9.84;82.84
65754;BME280;69207;47.502;18.940;2023-04-25T03:25:06;96995.44;;;9.81;82.48
65754;BME280;69207;47.502;18.940;2023-04-25T03:26:10;96981.72;;;9.81;82.67
65754;BME280;69207;47.502;18.940;2023-04-25T03:27:13;96985.06;;;9.79;82.73
65754;BME280;69207;47.502;18.940;2023-04-25T03:28:16;96981.63;;;9.78;82.67
65754;BME280;69207;47.502;18.940;2023-04-25T03:29:19;96986.28;;;9.76;82.92
65754;BME280;69207;47.502;18.940;2023-04-25T03:30:27;96985.84;;;9.68;83.06
65754;BME280;69207;47.502;18.940;2023-04-25T03:31:30;96982.41;;;9.67;83.36
65754;BME280;69207;47.502;18.940;2023-04-25T03:32:34;96974.87;;;9.68;83.60
65754;BME280;69207;47.502;18.940;2023-04-25T03:33:37;96992.31;;;9.61;83.90
65754;BME280;69207;47.502;18.940;2023-04-25T03:34:40;96990.16;;;9.59;84.14
65754;BME280;69207;47.502;18.940;2023-04-25T03:35:43;96975.53;;;9.55;84.42
65754;BME280;69207;47.502;18.940;2023-04-25T03:36:47;96990.16;;;9.59;84.18
65754;BME280;69207;47.502;18.940;2023-04-25T03:37:50;96988.75;;;9.58;84.33
65754;BME280;69207;47.502;18.940;2023-04-25T03:38:53;96983.97;;;9.59;84.19
65754;BME280;69207;47.502;18.940;2023-04-25T03:39:56;96985.06;;;9.53;84.62
65754;BME280;69207;47.502;18.940;2023-04-25T03:41:00;96987.59;;;9.49;85.03
65754;BME280;69207;47.502;18.940;2023-04-25T03:42:03;96992.16;;;9.45;85.43
65754;BME280;69207;47.502;18.940;2023-04-25T03:43:06;96985.81;;;9.42;85.55
65754;BME280;69207;47.502;18.940;2023-04-25T03:44:09;96981.50;;;9.51;85.01
65754;BME280;69207;47.502;18.940;2023-04-25T03:45:12;96983.53;;;9.50;84.96
65754;BME280;69207;47.502;18.940;2023-04-25T03:46:15;96988.09;;;9.46;85.36
65754;BME280;69207;47.502;18.940;2023-04-25T03:47:18;96981.91;;;9.45;85.64
65754;BME280;69207;47.502;18.940;2023-04-25T03:48:21;96988.19;;;9.48;85.51
65754;BME280;69207;47.502;18.940;2023-04-25T03:49:27;96979.75;;;9.44;85.60
65754;BME280;69207;47.502;18.940;2023-04-25T03:50:30;96987.97;;;9.44;85.83
65754;BME280;69207;47.502;18.940;2023-04-25T03:51:33;96991.31;;;9.42;85.74
65754;BME280;69207;47.502;18.940;2023-04-25T03:52:36;96990.50;;;9.40;85.96
65754;BME280;69207;47.502;18.940;2023-04-25T03:53:39;96989.06;;;9.39;85.97
65754;BME280;69207;47.502;18.940;2023-04-25T03:54:42;96993.34;;;9.42;86.15
65754;BME280;69207;47.502;18.940;2023-04-25T03:55:45;96985.13;;;9.42;86.10
65754;BME280;69207;47.502;18.940;2023-04-25T03:56:48;96992.16;;;9.45;86.10
65754;BME280;69207;47.502;18.940;2023-04-25T03:57:51;96989.56;;;9.35;86.36
65754;BME280;69207;47.502;18.940;2023-04-25T03:58:56;96995.41;;;9.30;86.82
65754;BME280;69207;47.502;18.940;2023-04-25T03:59:59;96987.28;;;9.32;87.00
65754;BME280;69207;47.502;18.940;2023-04-25T04:01:03;97008.13;;;9.37;87.03
65754;BME280;69207;47.502;18.940;2023-04-25T04:02:10;96996.94;;;9.33;87.44
65754;BME280;69207;47.502;18.940;2023-04-25T04:03:13;96999.69;;;9.33;87.47
65754;BME280;69207;47.502;18.940;2023-04-25T04:04:17;97003.88;;;9.34;87.12
65754;BME280;69207;47.502;18.940;2023-04-25T04:05:21;97001.22;;;9.36;87.02
65754;BME280;69207;47.502;18.940;2023-04-25T04:06:25;97010.06;;;9.34;86.84
65754;BME280;69207;47.502;18.940;2023-04-25T04:07:28;97006.47;;;9.32;87.05
65754;BME280;69207;47.502;18.940;2023-04-25T04:08:32;97010.44;;;9.29;87.04
65754;BME280;69207;47.502;18.940;2023-04-25T04:09:35;97007.78;;;9.31;86.88
65754;BME280;69207;47.502;18.940;2023-04-25T04:10:38;97003.91;;;9.22;87.57
65754;BME280;69207;47.502;18.940;2023-04-25T04:11:41;97015.44;;;9.20;87.85
65754;BME280;69207;47.502;18.940;2023-04-25T04:12:44;97010.69;;;9.21;88.21
65754;BME280;69207;47.502;18.940;2023-04-25T04:13:47;97010.09;;;9.22;87.75
65754;BME280;69207;47.502;18.940;2023-04-25T04:14:50;97016.88;;;9.21;87.79
65754;BME280;69207;47.502;18.940;2023-04-25T04:15:53;97009.03;;;9.16;88.09
65754;BME280;69207;47.502;18.940;2023-04-25T04:16:57;97009.62;;;9.14;88.30
65754;BME280;69207;47.502;18.940;2023-04-25T04:18:00;97008.19;;;9.13;88.55
65754;BME280;69207;47.502;18.940;2023-04-25T04:19:06;97019.97;;;9.16;88.83
65754;BME280;69207;47.502;18.940;2023-04-25T04:20:09;97018.91;;;9.21;88.34
65754;BME280;69207;47.502;18.940;2023-04-25T04:21:14;97018.69;;;9.17;88.14
65754;BME280;69207;47.502;18.940;2023-04-25T04:22:17;97021.28;;;9.15;88.44
65754;BME280;69207;47.502;18.940;2023-04-25T04:23:20;97021.91;;;9.13;88.71
65754;BME280;69207;47.502;18.940;2023-04-25T04:24:25;97014.88;;;9.10;88.74
65754;BME280;69207;47.502;18.940;2023-04-25T04:25:28;97014.13;;;9.21;88.61
65754;BME280;69207;47.502;18.940;2023-04-25T04:26:32;97016.88;;;9.21;88.27
65754;BME280;69207;47.502;18.940;2023-04-25T04:27:35;97024.28;;;9.19;88.08
65754;BME280;69207;47.502;18.940;2023-04-25T04:28:38;97023.56;;;9.18;88.52
65754;BME280;69207;47.502;18.940;2023-04-25T04:29:41;97017.84;;;9.14;88.64
65754;BME280;69207;47.502;18.940;2023-04-25T04:30:44;97018.22;;;9.09;88.62
65754;BME280;69207;47.502;18.940;2023-04-25T04:31:50;97022.63;;;9.02;89.14
65754;BME280;69207;47.502;18.940;2023-04-25T04:32:54;97022.16;;;9.06;88.98
65754;BME280;69207;47.502;18.940;2023-04-25T04:33:57;97019.53;;;9.08;89.00
65754;BME280;69207;47.502;18.940;2023-04-25T04:34:59;97018.34;;;8.99;89.66
65754;BME280;69207;47.502;18.940;2023-04-25T04:36:03;97025.38;;;9.02;89.91
65754;BME280;69207;47.502;18.940;2023-04-25T04:37:07;97027.66;;;9.06;89.58
65754;BME280;69207;47.502;18.940;2023-04-25T04:38:10;97028.47;;;9.08;89.57
65754;BME280;69207;47.502;18.940;2023-04-25T04:39:14;97025.62;;;9.06;89.62
65754;BME280;69207;47.502;18.940;2023-04-25T04:40:18;97030.97;;;9.04;90.16
65754;BME280;69207;47.502;18.940;2023-04-25T04:41:21;97021.47;;;9.05;90.13
65754;BME280;69207;47.502;18.940;2023-04-25T04:42:24;97025.97;;;9.01;90.18
65754;BME280;69207;47.502;18.940;2023-04-25T04:43:27;97030.41;;;8.94;90.58
65754;BME280;69207;47.502;18.940;2023-04-25T04:44:31;97020.87;;;8.95;90.63
65754;BME280;69207;47.502;18.940;2023-04-25T04:45:37;97028.47;;;9.08;90.67
65754;BME280;69207;47.502;18.940;2023-04-25T04:46:43;97029.66;;;9.05;90.71
65754;BME280;69207;47.502;18.940;2023-04-25T04:47:47;97034.56;;;8.95;91.04
65754;BME280;69207;47.502;18.940;2023-04-25T04:48:51;97026.34;;;8.95;91.49
65754;BME280;69207;47.502;18.940;2023-04-25T04:49:55;97029.19;;;8.97;91.72
65754;BME280;69207;47.502;18.940;2023-04-25T04:50:58;97037.88;;;8.93;92.09
65754;BME280;69207;47.502;18.940;2023-04-25T04:52:01;97028.59;;;8.98;92.53
65754;BME280;69207;47.502;18.940;2023-04-25T04:53:04;97025.03;;;8.96;92.58
65754;BME280;69207;47.502;18.940;2023-04-25T04:54:11;97027.66;;;8.94;92.53
65754;BME280;69207;47.502;18.940;2023-04-25T04:55:14;97034.94;;;8.89;92.75
65754;BME280;69207;47.502;18.940;2023-04-25T04:56:17;97033.72;;;8.92;92.93
65754;BME280;69207;47.502;18.940;2023-04-25T04:57:20;97024.69;;;8.90;92.36
65754;BME280;69207;47.502;18.940;2023-04-25T04:58:23;97026.56;;;8.87;92.83
65754;BME280;69207;47.502;18.940;2023-04-25T04:59:26;97021.34;;;8.91;92.68
65754;BME280;69207;47.502;18.940;2023-04-25T05:00:30;97031.94;;;8.85;92.74
65754;BME280;69207;47.502;18.940;2023-04-25T05:01:33;97028.50;;;8.85;93.23
65754;BME280;69207;47.502;18.940;2023-04-25T05:02:39;97028.50;;;8.85;93.45
65754;BME280;69207;47.502;18.940;2023-04-25T05:03:42;97032.06;;;8.87;93.20
65754;BME280;69207;47.502;18.940;2023-04-25T05:04:45;97024.00;;;8.78;93.51
65754;BME280;69207;47.502;18.940;2023-04-25T05:05:48;97024.00;;;8.78;94.02
65754;BME280;69207;47.502;18.940;2023-04-25T05:06:51;97022.66;;;8.79;94.09
65754;BME280;69207;47.502;18.940;2023-04-25T05:07:54;97024.00;;;8.78;94.31
65754;BME280;69207;47.502;18.940;2023-04-25T05:08:58;97022.78;;;8.81;94.36
65754;BME280;69207;47.502;18.940;2023-04-25T05:10:03;97025.06;;;8.72;94.63
65754;BME280;69207;47.502;18.940;2023-04-25T05:11:06;97029.22;;;8.73;94.69
65754;BME280;69207;47.502;18.940;2023-04-25T05:12:09;97024.81;;;8.68;94.97
65754;BME280;69207;47.502;18.940;2023-04-25T05:13:12;97021.25;;;8.78;94.34
65754;BME280;69207;47.502;18.940;2023-04-25T05:14:15;97033.03;;;8.68;94.30
65754;BME280;69207;47.502;18.940;2023-04-25T05:15:19;97029.47;;;8.78;94.45
65754;BME280;69207;47.502;18.940;2023-04-25T05:16:23;97023.13;;;8.75;94.07
65754;BME280;69207;47.502;18.940;2023-04-25T05:17:26;97018.50;;;8.66;94.56
65754;BME280;69207;47.502;18.940;2023-04-25T05:18:29;97027.56;;;8.68;95.08
65754;BME280;69207;47.502;18.940;2023-04-25T05:19:32;97022.44;;;8.75;94.65
65754;BME280;69207;47.502;18.940;2023-04-25T05:20:35;97019.09;;;8.76;94.66
65754;BME280;69207;47.502;18.940;2023-04-25T05:21:39;97026.13;;;8.67;94.70
65754;BME280;69207;47.502;18.940;2023-04-25T05:22:41;97016.84;;;8.61;95.50
65754;BME280;69207;47.502;18.940;2023-04-25T05:23:44;97026.34;;;8.60;95.83
65754;BME280;69207;47.502;18.940;2023-04-25T05:24:47;97029.69;;;8.58;95.72
65754;BME280;69207;47.502;18.940;2023-04-25T05:25:51;97020.78;;;8.58;95.37
65754;BME280;69207;47.502;18.940;2023-04-25T05:26:54;97033.50;;;8.53;95.76
65754;BME280;69207;47.502;18.940;2023-04-25T05:27:57;97022.53;;;8.53;96.20
65754;BME280;69207;47.502;18.940;2023-04-25T05:29:00;97014.94;;;8.63;95.78
65754;BME280;69207;47.502;18.940;2023-04-25T05:30:04;97021.47;;;8.58;95.91
65754;BME280;69207;47.502;18.940;2023-04-25T05:31:10;97021.47;;;8.58;95.94
65754;BME280;69207;47.502;18.940;2023-04-25T05:32:13;97010.88;;;8.53;96.64
65754;BME280;69207;47.502;18.940;2023-04-25T05:33:16;97021.22;;;8.54;96.73
65754;BME280;69207;47.502;18.940;2023-04-25T05:34:19;97024.09;;;8.44;97.03